createdAt,value
2022-11-12T00:01:31.078Z,96336.16
2022-11-12T00:04:16.984Z,96347.59
2022-11-12T00:07:02.719Z,96331.81
2022-11-12T00:09:48.643Z,96323.59
2022-11-12T00:12:34.198Z,96334.00
2022-11-12T00:15:19.804Z,96329.97
2022-11-12T00:18:06.089Z,96320.94
2022-11-12T00:20:52.002Z,96323.59
2022-11-12T00:23:37.851Z,96337.56
2022-11-12T00:26:23.543Z,96326.53
2022-11-12T00:29:08.757Z,96324.47
2022-11-12T00:31:54.214Z,96345.78
2022-11-12T00:34:40.009Z,96343.94
2022-11-12T00:37:25.893Z,96314.88
2022-11-12T00:40:11.806Z,96323.28
2022-11-12T00:42:57.346Z,96330.22
2022-11-12T00:45:43.612Z,96349.47
2022-11-12T00:48:33.685Z,96343.94
2022-11-12T00:51:19.624Z,96345.34
2022-11-12T00:54:06.566Z,96332.88
2022-11-12T00:56:52.178Z,96323.25
2022-11-12T00:59:37.698Z,96312.19
2022-11-12T01:02:23.229Z,96303.72
2022-11-12T01:05:09.536Z,96315.38
2022-11-12T01:07:56.291Z,96301.69
2022-11-12T01:10:43.505Z,96309.28
2022-11-12T01:13:29.070Z,96319.91
2022-11-12T01:16:19.871Z,96316.41
2022-11-12T01:19:08.252Z,96321.75
2022-11-12T01:21:53.814Z,96306.41
2022-11-12T01:24:39.355Z,96292.69
2022-11-12T01:27:25.074Z,96320.50
2022-11-12T01:30:11.137Z,96314.34
2022-11-12T01:32:57.043Z,96318.88
2022-11-12T01:35:42.638Z,96309.84
2022-11-12T01:38:28.720Z,96313.13
2022-11-12T01:41:24.126Z,96311.47
2022-11-12T01:44:13.126Z,96308.19
2022-11-12T01:47:18.422Z,96286.06
2022-11-12T01:50:07.122Z,96299.38
2022-11-12T01:52:58.499Z,96300.47
2022-11-12T01:55:44.402Z,96293.53
2022-11-12T01:58:32.106Z,96302.78
2022-11-12T02:01:17.696Z,96283.50
2022-11-12T02:04:03.648Z,96294.97
2022-11-12T02:06:51.833Z,96266.06
2022-11-12T02:09:38.107Z,96275.31
2022-11-12T02:12:42.706Z,96287.97
2022-11-12T02:15:49.766Z,96282.09
2022-11-12T02:18:36.343Z,96302.75
2022-11-12T02:21:23.938Z,96295.59
2022-11-12T02:24:13.090Z,96314.47
2022-11-12T02:27:00.067Z,96249.28
2022-11-12T02:29:48.693Z,96306.47
2022-11-12T02:32:34.343Z,96132.44
2022-11-12T02:35:19.855Z,95976.63
2022-11-12T02:38:06.555Z,96253.84
2022-11-12T02:40:52.620Z,96079.94
2022-11-12T02:43:38.157Z,96240.50
2022-11-12T02:46:23.624Z,96295.03
2022-11-12T02:49:08.944Z,96280.84
2022-11-12T02:51:55.065Z,96291.69
2022-11-12T02:54:40.895Z,96273.84
2022-11-12T02:57:27.429Z,96294.16
2022-11-12T03:00:13.892Z,96293.13
2022-11-12T03:02:59.711Z,96264.47
2022-11-12T03:05:46.327Z,96266.50
2022-11-12T03:08:32.062Z,96290.69
2022-11-12T03:11:18.401Z,96301.56
2022-11-12T03:14:04.167Z,96276.41
2022-11-12T03:16:49.981Z,96262.25
2022-11-12T03:19:36.038Z,96286.63
2022-11-12T03:22:21.689Z,96285.84
2022-11-12T03:25:08.772Z,96303.88
2022-11-12T03:27:58.639Z,96307.56
2022-11-12T03:30:45.436Z,96288.50
2022-11-12T03:33:31.640Z,96267.03
2022-11-12T03:36:17.441Z,96279.94
2022-11-12T03:39:03.104Z,96238.38
2022-11-12T03:41:48.749Z,96264.78
2022-11-12T03:44:34.458Z,96300.25
2022-11-12T03:47:19.970Z,96282.63
2022-11-12T03:50:06.719Z,96289.16
2022-11-12T03:52:56.418Z,96261.94
2022-11-12T03:55:42.432Z,96280.16
2022-11-12T03:58:28.102Z,96289.41
2022-11-12T04:01:14.255Z,96287.16
2022-11-12T04:03:59.713Z,96294.13
2022-11-12T04:07:03.572Z,96275.88
2022-11-12T04:09:49.134Z,96304.34
2022-11-12T04:12:53.295Z,96271.59
2022-11-12T04:15:38.982Z,96254.19
2022-11-12T04:18:43.083Z,96259.31
2022-11-12T04:21:56.744Z,96283.47
2022-11-12T04:25:01.581Z,96273.25
2022-11-12T04:27:47.089Z,96261.38
2022-11-12T04:30:32.476Z,96263.19
2022-11-12T04:33:18.163Z,96272.44
2022-11-12T04:36:03.793Z,96282.66
2022-11-12T04:38:49.621Z,96291.69
2022-11-12T04:41:53.800Z,96285.94
2022-11-12T04:44:57.674Z,96280.00
2022-11-12T04:47:46.642Z,96289.03
2022-11-12T04:50:32.258Z,96286.56
2022-11-12T04:53:18.185Z,96254.19
2022-11-12T04:56:04.204Z,96261.16
2022-11-12T04:58:50.150Z,96304.38
2022-11-12T05:01:35.618Z,96216.69
2022-11-12T05:04:22.175Z,96275.91
2022-11-12T05:07:08.413Z,96298.22
2022-11-12T05:09:54.077Z,96292.09
2022-11-12T05:12:39.754Z,96257.25
2022-11-12T05:15:25.637Z,96278.56
2022-11-12T05:18:11.145Z,96307.25
2022-11-12T05:20:56.792Z,96311.38
2022-11-12T05:23:42.402Z,96316.69
2022-11-12T05:26:28.247Z,96287.38
2022-11-12T05:29:14.334Z,96245.59
2022-11-12T05:32:00.046Z,96307.06
2022-11-12T05:34:45.781Z,96311.34
2022-11-12T05:37:31.624Z,96331.03
2022-11-12T05:40:17.479Z,96325.28
2022-11-12T05:43:03.208Z,96325.50
2022-11-12T05:45:48.707Z,96320.97
2022-11-12T05:48:34.478Z,96323.66
2022-11-12T05:51:20.398Z,96338.00
2022-11-12T05:54:06.754Z,96323.44
2022-11-12T05:56:53.674Z,96336.56
2022-11-12T05:59:39.507Z,96336.56
2022-11-12T06:02:25.331Z,96330.00
2022-11-12T06:05:10.974Z,96325.69
2022-11-12T06:07:56.277Z,96328.16
2022-11-12T06:10:42.357Z,96328.16
2022-11-12T06:13:29.200Z,96313.59
2022-11-12T06:16:14.679Z,96351.75
2022-11-12T06:19:00.501Z,96322.22
2022-11-12T06:21:46.050Z,96350.50
2022-11-12T06:24:35.115Z,96328.78
2022-11-12T06:27:20.961Z,96354.19
2022-11-12T06:30:07.472Z,96317.53
2022-11-12T06:32:53.376Z,96344.16
2022-11-12T06:35:42.979Z,96326.13
2022-11-12T06:38:38.500Z,96339.41
2022-11-12T06:41:24.239Z,96330.03
2022-11-12T06:44:09.872Z,96347.66
2022-11-12T06:46:55.431Z,96328.56
2022-11-12T06:49:41.215Z,96354.00
2022-11-12T06:52:26.773Z,96349.47
2022-11-12T06:55:12.525Z,96336.38
2022-11-12T06:57:58.027Z,96372.84
2022-11-12T07:00:43.838Z,96356.03
2022-11-12T07:03:29.541Z,96322.44
2022-11-12T07:06:20.410Z,96361.78
2022-11-12T07:09:06.383Z,96335.97
2022-11-12T07:11:51.884Z,96350.09
2022-11-12T07:14:38.702Z,96348.44
2022-11-12T07:17:24.354Z,96351.47
2022-11-12T07:20:10.833Z,96340.41
2022-11-12T07:23:00.482Z,96343.88
2022-11-12T07:25:46.102Z,96333.41
2022-11-12T07:29:07.296Z,96341.78
2022-11-12T07:31:52.785Z,96347.13
2022-11-12T07:34:38.546Z,96345.50
2022-11-12T07:37:24.223Z,96353.66
2022-11-12T07:40:10.676Z,96347.31
2022-11-12T07:42:56.094Z,96341.31
2022-11-12T07:45:41.856Z,96339.44
2022-11-12T07:48:29.826Z,96351.72
2022-11-12T07:51:27.757Z,96350.06
2022-11-12T07:54:13.804Z,96326.50
2022-11-12T07:56:59.333Z,96331.19
2022-11-12T07:59:46.512Z,96342.25
2022-11-12T08:02:32.825Z,96343.03
2022-11-12T08:05:21.336Z,96350.84
2022-11-12T08:08:07.571Z,96356.13
2022-11-12T08:10:57.564Z,96366.59
2022-11-12T08:13:43.217Z,96364.94
2022-11-12T08:16:28.951Z,96348.78
2022-11-12T08:19:15.206Z,96352.41
2022-11-12T08:22:00.923Z,96322.91
2022-11-12T08:24:48.434Z,96287.72
2022-11-12T08:27:34.293Z,96360.97
2022-11-12T08:30:26.361Z,96348.91
2022-11-12T08:33:12.765Z,96370.63
2022-11-12T08:35:59.116Z,96372.91
2022-11-12T08:38:45.370Z,96329.03
2022-11-12T08:41:30.673Z,96348.03
2022-11-12T08:44:16.604Z,96366.66
2022-11-12T08:47:02.430Z,96369.91
2022-11-12T08:49:48.371Z,96350.69
2022-11-12T08:52:34.537Z,96377.28
2022-11-12T08:55:21.008Z,96378.31
2022-11-12T08:58:07.825Z,96356.38
2022-11-12T09:00:53.787Z,96361.63
2022-11-12T09:03:39.959Z,96362.00
2022-11-12T09:06:26.070Z,96360.50
2022-11-12T09:09:11.567Z,96371.75
2022-11-12T09:11:58.227Z,96343.00
2022-11-12T09:14:43.961Z,96333.94
2022-11-12T09:17:32.816Z,96343.28
2022-11-12T09:20:18.596Z,96358.81
2022-11-12T09:23:28.871Z,96344.44
2022-11-12T09:26:15.688Z,96358.34
2022-11-12T09:29:01.574Z,96354.47
2022-11-12T09:31:49.456Z,96335.19
2022-11-12T09:34:35.881Z,96334.09
2022-11-12T09:37:27.347Z,96336.16
2022-11-12T09:40:18.530Z,96339.44
2022-11-12T09:43:24.397Z,96361.19
2022-11-12T09:46:29.914Z,96365.75
2022-11-12T09:49:23.891Z,96363.34
2022-11-12T09:52:27.019Z,96359.94
2022-11-12T09:55:29.339Z,96358.28
2022-11-12T09:58:17.836Z,96348.06
2022-11-12T10:01:15.484Z,96350.31
2022-11-12T10:04:21.023Z,96306.72
2022-11-12T10:07:10.414Z,96362.31
2022-11-12T10:10:04.720Z,96352.66
2022-11-12T10:13:00.594Z,96359.81
2022-11-12T10:16:32.817Z,96363.03
2022-11-12T10:19:41.123Z,96365.72
2022-11-12T10:23:02.912Z,96365.34
2022-11-12T10:25:51.688Z,96357.56
2022-11-12T10:28:43.873Z,96351.91
2022-11-12T10:31:29.601Z,96358.06
2022-11-12T10:34:19.233Z,96331.19
2022-11-12T10:37:08.066Z,96363.16
2022-11-12T10:39:54.246Z,96365.41
2022-11-12T10:42:59.251Z,96363.03
2022-11-12T10:45:46.367Z,96370.22
2022-11-12T10:48:34.715Z,96365.75
2022-11-12T10:51:28.684Z,96360.47
2022-11-12T10:54:39.718Z,96351.66
2022-11-12T10:57:29.143Z,96326.66
2022-11-12T11:00:20.200Z,96360.59
2022-11-12T11:03:29.085Z,96343.81
2022-11-12T11:06:16.431Z,96363.47
2022-11-12T11:09:19.913Z,96362.34
2022-11-12T11:12:22.190Z,96361.31
2022-11-12T11:15:24.250Z,96352.47
2022-11-12T11:18:14.192Z,96337.31
2022-11-12T11:21:22.250Z,96297.34
2022-11-12T11:24:17.365Z,96358.78
2022-11-12T11:27:13.522Z,96337.22
2022-11-12T11:30:20.759Z,96323.22
2022-11-12T11:33:23.482Z,96349.06
2022-11-12T11:36:23.387Z,96324.00
2022-11-12T11:39:28.172Z,96349.03
2022-11-12T11:42:36.938Z,96357.41
2022-11-12T11:45:28.562Z,96348.34
